Star Herdla — LAVD4 — position and weather

sailwx.info

Track history (hours):
 
Tides and Currents Weather Stations Pressure Air Temp Water Temp Dewpoint Dewpoint Depression Visibility Wind Speed Wind Dir Waves Ship Positions

Star Herdla

Last reported at 2015-May-13 19:33 UTC. Time now 2015-May-24 19:25 UTC.
Position N 26°16' W 079°26'.
Warning: this ship's position is 10 days out of date.

Type: Cargo ship. MMSI: 258954000.

Date/timePositionNaut miles runAvg speedWind from/ knotsBaromVisibWave heightAir tempDewpointWater temp
2015-May-13 19:33N 26°16' W 079°26'1918.6
2015-May-13 18:33N 25°57' W 079°29'411 8.7
2015-May-11 19:32N 30°08' W 085°38'0 0.0
2015-May-11 18:32N 30°08' W 085°38'0 0.0
2015-May-11 17:32N 30°08' W 085°38'0 0.0
2015-May-11 16:32N 30°08' W 085°38'0 0.0
2015-May-11 13:17N 30°08' W 085°38'0 0.0
2015-May-11 12:32N 30°08' W 085°38'0 0.0
2015-May-11 11:32N 30°08' W 085°38'0 0.0
2015-May-11 10:32N 30°08' W 085°38'0 0.0
2015-May-11 09:32N 30°08' W 085°38'0 0.0
2015-May-11 08:32N 30°08' W 085°38'0 0.0
2015-May-11 07:32N 30°08' W 085°38'0 0.0
2015-May-11 06:32N 30°08' W 085°38'0 0.0
2015-May-11 05:33N 30°08' W 085°38'2 1.5
2015-May-11 04:33N 30°08' W 085°39'7 7.2
2015-May-11 03:33N 30°04' W 085°46'2612.0
2015-May-11 01:23N 29°39' W 085°52'1816.2
2015-May-11 00:17N 29°33' W 086°11'1216.5
2015-May-10 23:33N 29°33' W 086°25'3316.2
2015-May-10 21:31N 29°33' W 087°03'  
2015-May-06 20:33N 30°09' W 088°03'3511.4
2015-May-06 17:31N 29°41' W 087°40'  
2015-May-04 00:33N 29°25' W 094°50'1212.2
2015-May-03 23:33N 29°36' W 094°56'9 9.4
2015-May-03 22:33N 29°44' W 095°02'6 6.4
2015-May-03 21:33N 29°44' W 095°09'5 5.3
2015-May-03 20:33N 29°44' W 095°15'  
Track history (hours):
 
Tides and Currents Weather Stations Pressure Air Temp Water Temp Dewpoint Dewpoint Depression Visibility Wind Speed Wind Dir Waves Ship Positions

Star Herdla

Last reported at 2015-May-13 19:33 UTC. Time now 2015-May-24 19:25 UTC.
Position N 26°16' W 079°26'.
Warning: this ship's position is 10 days out of date.

Type: Cargo ship. MMSI: 258954000.

Date/timePositionNaut miles runAvg speedWind from/ knotsBaromVisibWave heightAir tempDewpointWater temp
2015-May-13 19:33N 26°16' W 079°26'1918.6
2015-May-13 18:33N 25°57' W 079°29'411 8.7
2015-May-11 19:32N 30°08' W 085°38'0 0.0
2015-May-11 18:32N 30°08' W 085°38'0 0.0
2015-May-11 17:32N 30°08' W 085°38'0 0.0
2015-May-11 16:32N 30°08' W 085°38'0 0.0
2015-May-11 13:17N 30°08' W 085°38'0 0.0
2015-May-11 12:32N 30°08' W 085°38'0 0.0
2015-May-11 11:32N 30°08' W 085°38'0 0.0
2015-May-11 10:32N 30°08' W 085°38'0 0.0
2015-May-11 09:32N 30°08' W 085°38'0 0.0
2015-May-11 08:32N 30°08' W 085°38'0 0.0
2015-May-11 07:32N 30°08' W 085°38'0 0.0
2015-May-11 06:32N 30°08' W 085°38'0 0.0
2015-May-11 05:33N 30°08' W 085°38'2 1.5
2015-May-11 04:33N 30°08' W 085°39'7 7.2
2015-May-11 03:33N 30°04' W 085°46'2612.0
2015-May-11 01:23N 29°39' W 085°52'1816.2
2015-May-11 00:17N 29°33' W 086°11'1216.5
2015-May-10 23:33N 29°33' W 086°25'3316.2
2015-May-10 21:31N 29°33' W 087°03'  
2015-May-06 20:33N 30°09' W 088°03'3511.4
2015-May-06 17:31N 29°41' W 087°40'  
2015-May-04 00:33N 29°25' W 094°50'1212.2
2015-May-03 23:33N 29°36' W 094°56'9 9.4
2015-May-03 22:33N 29°44' W 095°02'6 6.4
2015-May-03 21:33N 29°44' W 095°09'5 5.3
2015-May-03 20:33N 29°44' W 095°15'  

Dump ship's entire track history